Time;durP1;ratioP1;P1;durP2;ratioP2;P2;SDS_P1;SDS_P2;PMS_P1;PMS_P2;Temp;Humidity;BMP_temperature;BMP_pressure;BME280_temperature;BME280_humidity;BME280_pressure;Samples;Min_cycle;Max_cycle;Signal;HPM_P1;HPM_P2
2022/05/15 00:00:59;;;;;;;16.45;5.93;;;;;;;;;;5073377;28;20047;-68
2022/05/15 00:03:24;;;;;;;25.90;6.20;;;;;;;;;;5110259;28;20111;-68
2022/05/15 00:05:51;;;;;;;14.70;6.00;;;;;;;;;;5108011;28;20649;-68
2022/05/15 00:08:31;;;;;;;17.65;5.53;;;;;;;;;;5111549;28;20030;-68
2022/05/15 00:10:57;;;;;;;15.43;5.57;;;;;;;;;;5113203;28;20057;-68
2022/05/15 00:13:23;;;;;;;20.20;6.40;;;;;;;;;;5114236;28;20502;-68
2022/05/15 00:16:02;;;;;;;21.55;6.50;;;;;;;;;;5113117;28;20023;-68
2022/05/15 00:18:27;;;;;;;14.82;6.18;;;;;;;;;;5113962;28;20027;-68
2022/05/15 00:20:53;;;;;;;17.85;5.95;;;;;;;;;;5106689;28;20020;-68
2022/05/15 00:23:32;;;;;;;24.02;6.40;;;;;;;;;;5103361;28;20419;-68
2022/05/15 00:25:57;;;;;;;15.07;6.55;;;;;;;;;;5106604;28;20081;-68
2022/05/15 00:28:22;;;;;;;23.02;6.65;;;;;;;;;;5105535;28;20431;-68
2022/05/15 00:31:01;;;;;;;23.27;6.93;;;;;;;;;;5109120;28;20408;-68
2022/05/15 00:33:26;;;;;;;22.58;6.75;;;;;;;;;;5101685;28;20453;-68
2022/05/15 00:35:53;;;;;;;20.13;6.88;;;;;;;;;;5108619;28;20028;-68
2022/05/15 00:38:32;;;;;;;24.90;6.90;;;;;;;;;;5108066;28;20028;-68
2022/05/15 00:40:57;;;;;;;18.73;7.13;;;;;;;;;;5110792;28;20501;-68
2022/05/15 00:43:48;;;;;;;21.90;7.10;;;;;;;;;;5110423;28;20051;-68
2022/05/15 00:46:26;;;;;;;23.67;7.30;;;;;;;;;;5099082;28;20039;-68
2022/05/15 00:48:59;;;;;;;19.98;6.35;;;;;;;;;;5113427;28;20042;-68
2022/05/15 00:51:37;;;;;;;23.70;6.53;;;;;;;;;;5104154;28;20028;-68
2022/05/15 00:54:21;;;;;;;25.23;7.13;;;;;;;;;;5110980;28;20390;-68
2022/05/15 00:57:19;;;;;;;19.60;7.35;;;;;;;;;;5107042;28;20031;-68
2022/05/15 01:00:03;;;;;;;23.48;6.03;;;;;;;;;;5106774;28;20035;-68
2022/05/15 01:02:43;;;;;;;22.80;6.50;;;;;;;;;;5108492;28;20024;-68
2022/05/15 01:05:17;;;;;;;23.08;6.70;;;;;;;;;;5101220;28;20024;-68
2022/05/15 01:07:49;;;;;;;24.02;6.78;;;;;;;;;;5098943;28;20124;-68
2022/05/15 01:10:14;;;;;;;20.55;6.45;;;;;;;;;;5107238;28;20073;-68
2022/05/15 01:12:48;;;;;;;21.55;6.30;;;;;;;;;;5102846;28;20028;-68
2022/05/15 01:15:21;;;;;;;27.38;5.30;;;;;;;;;;5110866;28;20035;-68
2022/05/15 01:17:54;;;;;;;16.85;4.47;;;;;;;;;;5105126;28;20039;-68
2022/05/15 01:20:21;;;;;;;14.05;4.32;;;;;;;;;;5109884;28;20032;-68
2022/05/15 01:22:53;;;;;;;8.30;3.63;;;;;;;;;;5105212;28;20022;-68
2022/05/15 01:25:27;;;;;;;7.55;2.63;;;;;;;;;;5112420;28;20475;-68
2022/05/15 01:27:52;;;;;;;;;;;;;;;;;;5108583;28;20076;-68
2022/05/15 01:30:24;;;;;;;9.13;3.00;;;;;;;;;;5112781;28;20006;-68
2022/05/15 01:32:56;;;;;;;8.15;2.90;;;;;;;;;;5107264;28;20134;-68
2022/05/15 01:35:21;;;;;;;9.55;2.38;;;;;;;;;;5099182;28;20150;-68
2022/05/15 01:37:53;;;;;;;4.80;2.40;;;;;;;;;;5109205;28;20111;-68
2022/05/15 01:40:25;;;;;;;7.13;2.08;;;;;;;;;;5113087;28;20056;-68
2022/05/15 01:42:50;;;;;;;5.65;2.58;;;;;;;;;;5110500;28;20020;-68
2022/05/15 01:45:22;;;;;;;5.63;2.20;;;;;;;;;;5113102;28;20008;-68
2022/05/15 01:47:54;;;;;;;5.90;2.50;;;;;;;;;;5101481;28;20102;-68
2022/05/15 01:50:19;;;;;;;4.53;2.13;;;;;;;;;;5107096;28;20031;-68
2022/05/15 01:52:51;;;;;;;13.30;2.75;;;;;;;;;;5103346;28;20020;-68
2022/05/15 01:55:23;;;;;;;12.60;2.75;;;;;;;;;;5102028;28;20046;-68
2022/05/15 01:57:48;;;;;;;7.53;2.40;;;;;;;;;;5108136;28;20096;-68
2022/05/15 02:00:23;;;;;;;5.30;2.30;;;;;;;;;;5086711;28;20031;-68
2022/05/15 02:02:55;;;;;;;7.57;2.22;;;;;;;;;;5101779;28;20032;-68
2022/05/15 02:05:27;;;;;;;13.57;2.90;;;;;;;;;;5114691;28;20032;-68
2022/05/15 02:07:53;;;;;;;7.78;2.22;;;;;;;;;;5110767;28;20050;-68
2022/05/15 02:10:25;;;;;;;8.60;2.45;;;;;;;;;;5116301;28;20440;-68
2022/05/15 02:12:57;;;;;;;5.75;2.35;;;;;;;;;;5113332;28;20040;-68
2022/05/15 02:15:22;;;;;;;11.85;2.50;;;;;;;;;;5103174;28;20352;-68
2022/05/15 02:17:54;;;;;;;6.78;2.60;;;;;;;;;;5113010;28;20118;-68
2022/05/15 02:20:26;;;;;;;9.75;2.53;;;;;;;;;;5114734;28;20111;-68
2022/05/15 02:22:51;;;;;;;8.80;2.28;;;;;;;;;;5101617;28;20039;-68
2022/05/15 02:25:23;;;;;;;7.03;2.53;;;;;;;;;;5116066;28;20018;-68
2022/05/15 02:27:55;;;;;;;8.88;2.40;;;;;;;;;;5113730;28;20024;-68
2022/05/15 02:30:20;;;;;;;9.45;2.35;;;;;;;;;;5115384;28;20069;-68
2022/05/15 02:32:53;;;;;;;11.77;2.65;;;;;;;;;;5103240;28;20487;-68
2022/05/15 02:35:25;;;;;;;4.13;2.10;;;;;;;;;;5113242;28;20022;-68
2022/05/15 02:37:50;;;;;;;7.40;2.20;;;;;;;;;;5111692;28;20482;-68
2022/05/15 02:40:26;;;;;;;8.88;2.50;;;;;;;;;;5113548;28;20011;-68
2022/05/15 02:42:58;;;;;;;8.88;2.80;;;;;;;;;;5106809;28;20489;-68
2022/05/15 02:45:24;;;;;;;6.72;2.38;;;;;;;;;;5115222;28;20053;-68
2022/05/15 02:47:56;;;;;;;5.20;2.30;;;;;;;;;;5113996;28;20405;-68
2022/05/15 02:53:18;;;;;;;11.25;2.65;;;;;;;;;;5114298;28;20100;-68
2022/05/15 02:55:50;;;;;;;7.90;2.83;;;;;;;;;;5109298;28;20072;-68
2022/05/15 02:58:15;;;;;;;7.07;2.70;;;;;;;;;;5114001;28;20044;-68
2022/05/15 03:00:47;;;;;;;7.28;2.15;;;;;;;;;;5114768;28;20496;-68
2022/05/15 03:03:19;;;;;;;7.25;2.10;;;;;;;;;;5099707;28;20068;-68
2022/05/15 03:05:44;;;;;;;8.73;2.50;;;;;;;;;;5108889;28;20035;-68
2022/05/15 03:08:16;;;;;;;11.63;2.40;;;;;;;;;;5106805;28;20371;-68
2022/05/15 03:10:48;;;;;;;11.55;2.80;;;;;;;;;;5112608;28;20432;-68
2022/05/15 03:13:13;;;;;;;6.47;2.10;;;;;;;;;;5105360;28;20390;-68
2022/05/15 03:15:46;;;;;;;5.68;2.13;;;;;;;;;;5114637;28;20018;-68
2022/05/15 03:18:18;;;;;;;6.30;2.13;;;;;;;;;;5113874;28;20039;-68
2022/05/15 03:20:43;;;;;;;7.78;2.20;;;;;;;;;;5110852;28;20475;-68
2022/05/15 03:23:15;;;;;;;5.13;2.20;;;;;;;;;;5114913;28;20092;-68
2022/05/15 03:25:47;;;;;;;5.90;2.40;;;;;;;;;;5101077;28;20103;-68
2022/05/15 03:28:12;;;;;;;4.75;2.38;;;;;;;;;;5112816;28;20047;-68
2022/05/15 03:30:45;;;;;;;7.35;2.17;;;;;;;;;;5112431;28;20092;-68
2022/05/15 03:33:17;;;;;;;7.47;2.22;;;;;;;;;;5094774;28;20048;-68
2022/05/15 03:35:42;;;;;;;7.50;2.10;;;;;;;;;;5108915;28;20036;-68
2022/05/15 03:38:15;;;;;;;7.28;2.30;;;;;;;;;;5110433;28;20035;-69
2022/05/15 03:40:47;;;;;;;6.05;2.22;;;;;;;;;;5112530;28;20031;-68
2022/05/15 03:43:12;;;;;;;6.20;2.03;;;;;;;;;;5110669;28;20039;-68
2022/05/15 03:45:44;;;;;;;4.60;2.33;;;;;;;;;;5113186;28;20064;-68
2022/05/15 03:48:16;;;;;;;6.93;2.22;;;;;;;;;;5100247;28;20475;-68
2022/05/15 03:50:41;;;;;;;9.15;2.28;;;;;;;;;;5109287;28;20527;-68
2022/05/15 03:53:13;;;;;;;5.57;1.98;;;;;;;;;;5112281;28;20069;-68
2022/05/15 03:55:45;;;;;;;11.25;2.55;;;;;;;;;;5112615;28;20106;-68
2022/05/15 03:58:10;;;;;;;10.45;1.75;;;;;;;;;;5112870;28;20407;-68
2022/05/15 04:00:43;;;;;;;4.63;1.88;;;;;;;;;;5102008;28;20012;-68
2022/05/15 04:03:15;;;;;;;6.97;2.10;;;;;;;;;;5102805;28;20088;-68
2022/05/15 04:05:40;;;;;;;5.07;1.80;;;;;;;;;;5111502;28;20045;-68
2022/05/15 04:08:12;;;;;;;5.97;1.52;;;;;;;;;;5098373;28;20411;-68
2022/05/15 04:10:44;;;;;;;4.45;1.73;;;;;;;;;;5112395;28;20107;-68
2022/05/15 04:13:09;;;;;;;6.78;1.85;;;;;;;;;;5105316;28;20025;-68
2022/05/15 04:15:41;;;;;;;7.88;2.03;;;;;;;;;;5112886;28;20367;-68
2022/05/15 04:18:13;;;;;;;9.35;1.80;;;;;;;;;;5110190;28;20040;-68
2022/05/15 04:20:39;;;;;;;6.43;1.75;;;;;;;;;;5111778;28;20051;-68
2022/05/15 04:23:11;;;;;;;8.48;1.90;;;;;;;;;;5110463;28;20404;-69
2022/05/15 04:25:43;;;;;;;5.53;1.65;;;;;;;;;;5111987;28;20467;-68
2022/05/15 04:28:08;;;;;;;4.55;1.98;;;;;;;;;;5113777;28;20039;-68
2022/05/15 04:30:40;;;;;;;4.63;2.08;;;;;;;;;;5110534;28;20020;-68
2022/05/15 04:33:12;;;;;;;3.42;1.60;;;;;;;;;;5110428;28;20109;-68
2022/05/15 04:35:37;;;;;;;2.92;1.70;;;;;;;;;;5107723;28;20032;-68
2022/05/15 04:38:09;;;;;;;3.83;1.67;;;;;;;;;;5108526;28;20035;-68
2022/05/15 04:40:41;;;;;;;4.63;2.05;;;;;;;;;;5113088;28;20076;-68
2022/05/15 04:43:07;;;;;;;6.60;1.80;;;;;;;;;;5107403;28;20040;-68
2022/05/15 04:45:39;;;;;;;6.65;2.10;;;;;;;;;;5113175;28;20064;-68
2022/05/15 04:48:11;;;;;;;3.83;1.65;;;;;;;;;;5113106;28;20023;-68
2022/05/15 04:50:37;;;;;;;5.57;1.65;;;;;;;;;;5113095;28;20031;-68
2022/05/15 04:53:10;;;;;;;7.00;1.77;;;;;;;;;;5107147;28;20043;-68
2022/05/15 04:55:42;;;;;;;8.07;1.88;;;;;;;;;;5101522;28;20107;-68
2022/05/15 04:58:07;;;;;;;4.03;1.90;;;;;;;;;;5108787;28;20114;-68
2022/05/15 05:00:39;;;;;;;4.20;1.63;;;;;;;;;;5112123;28;20111;-68
2022/05/15 05:03:11;;;;;;;3.90;1.88;;;;;;;;;;5110890;28;20989;-68
2022/05/15 05:05:36;;;;;;;7.53;1.80;;;;;;;;;;5103467;28;20042;-68
2022/05/15 05:08:08;;;;;;;3.00;1.55;;;;;;;;;;5101445;28;20027;-68
2022/05/15 05:10:40;;;;;;;6.95;2.10;;;;;;;;;;5101632;28;20379;-68
2022/05/15 05:13:06;;;;;;;5.22;1.50;;;;;;;;;;5112294;28;20532;-68
2022/05/15 05:15:38;;;;;;;6.57;1.70;;;;;;;;;;5111242;28;20090;-68
2022/05/15 05:18:13;;;;;;;3.38;1.63;;;;;;;;;;5100615;28;20047;-68
2022/05/15 05:20:45;;;;;;;3.78;1.70;;;;;;;;;;5111422;28;20050;-68
2022/05/15 05:23:17;;;;;;;6.45;1.80;;;;;;;;;;5108241;28;20051;-68
2022/05/15 05:25:42;;;;;;;3.53;1.60;;;;;;;;;;5104917;28;20038;-68
2022/05/15 05:28:15;;;;;;;4.60;1.60;;;;;;;;;;5104588;28;20019;-68
2022/05/15 05:30:47;;;;;;;3.72;1.60;;;;;;;;;;5112570;28;20521;-68
2022/05/15 05:33:12;;;;;;;8.65;1.75;;;;;;;;;;5099772;28;20472;-68
2022/05/15 05:35:45;;;;;;;4.22;1.73;;;;;;;;;;5116027;28;20024;-68
2022/05/15 05:38:17;;;;;;;2.97;1.67;;;;;;;;;;5101825;28;20047;-68
2022/05/15 05:40:43;;;;;;;4.68;1.75;;;;;;;;;;5116484;28;20506;-68
2022/05/15 05:43:15;;;;;;;6.03;1.70;;;;;;;;;;5113558;28;20034;-68
2022/05/15 05:45:47;;;;;;;6.40;1.85;;;;;;;;;;5104723;28;20023;-68
2022/05/15 05:48:12;;;;;;;6.20;2.00;;;;;;;;;;5109735;28;20027;-68
2022/05/15 05:50:44;;;;;;;3.88;1.90;;;;;;;;;;5110922;28;20086;-68
2022/05/15 05:53:16;;;;;;;8.52;2.08;;;;;;;;;;5104295;28;20076;-68
2022/05/15 05:55:41;;;;;;;7.00;1.75;;;;;;;;;;5114536;28;20106;-68
2022/05/15 05:58:13;;;;;;;4.70;1.60;;;;;;;;;;5104727;28;20522;-68
2022/05/15 06:00:45;;;;;;;4.75;1.88;;;;;;;;;;5113860;28;20022;-68
2022/05/15 06:06:08;;;;;;;3.42;1.80;;;;;;;;;;5112473;28;20042;-68
2022/05/15 06:08:33;;;;;;;5.88;1.67;;;;;;;;;;5106455;28;20129;-68
2022/05/15 06:10:59;;;;;;;8.60;1.80;;;;;;;;;;5113694;28;20079;-68
2022/05/15 06:13:39;;;;;;;3.65;1.80;;;;;;;;;;5116567;28;20098;-68
2022/05/15 06:16:04;;;;;;;4.25;2.08;;;;;;;;;;5100834;28;20471;-68
2022/05/15 06:18:29;;;;;;;5.45;1.90;;;;;;;;;;5113503;28;20032;-68
2022/05/15 06:21:08;;;;;;;5.63;1.77;;;;;;;;;;5113435;28;20027;-68
2022/05/15 06:23:33;;;;;;;2.78;1.65;;;;;;;;;;5114039;28;20042;-68
2022/05/15 06:25:58;;;;;;;3.85;1.90;;;;;;;;;;5112937;28;20107;-68
2022/05/15 06:28:37;;;;;;;6.38;1.60;;;;;;;;;;5115896;28;20421;-68
2022/05/15 06:31:02;;;;;;;4.57;1.40;;;;;;;;;;5112029;28;20032;-68
2022/05/15 06:33:28;;;;;;;6.05;1.75;;;;;;;;;;5112719;28;20452;-68
2022/05/15 06:36:07;;;;;;;4.78;1.48;;;;;;;;;;5112861;28;20107;-68
2022/05/15 06:38:32;;;;;;;6.68;1.90;;;;;;;;;;5112394;28;20088;-68
2022/05/15 06:40:57;;;;;;;4.07;1.60;;;;;;;;;;5113105;28;20023;-68
2022/05/15 06:43:36;;;;;;;3.95;1.58;;;;;;;;;;5106146;28;20028;-68
2022/05/15 06:46:01;;;;;;;5.80;2.30;;;;;;;;;;5112474;28;20058;-68
2022/05/15 06:48:26;;;;;;;5.78;1.80;;;;;;;;;;5109260;28;20058;-68
2022/05/15 06:51:05;;;;;;;5.63;1.88;;;;;;;;;;5111000;28;20032;-68
2022/05/15 06:53:31;;;;;;;4.75;1.75;;;;;;;;;;5111662;28;20039;-68
2022/05/15 06:58:53;;;;;;;5.28;1.83;;;;;;;;;;5108877;28;20077;-69
2022/05/15 07:01:18;;;;;;;4.72;1.95;;;;;;;;;;5112925;28;20084;-68
2022/05/15 07:03:43;;;;;;;3.92;1.73;;;;;;;;;;5112861;28;20094;-68
2022/05/15 07:06:22;;;;;;;6.32;1.90;;;;;;;;;;5115554;28;20018;-68
2022/05/15 07:08:48;;;;;;;5.72;1.80;;;;;;;;;;5110646;28;20116;-68
2022/05/15 07:11:13;;;;;;;4.53;1.80;;;;;;;;;;5115521;28;20024;-68
2022/05/15 07:13:52;;;;;;;6.63;1.90;;;;;;;;;;5097144;28;20031;-68
2022/05/15 07:16:17;;;;;;;5.35;1.73;;;;;;;;;;5110850;28;20483;-68
2022/05/15 07:18:42;;;;;;;8.75;2.08;;;;;;;;;;5115334;28;20063;-68
2022/05/15 07:21:21;;;;;;;5.78;2.08;;;;;;;;;;5111119;28;20372;-68
2022/05/15 07:23:46;;;;;;;5.63;1.77;;;;;;;;;;5110107;28;20157;-68
2022/05/15 07:26:11;;;;;;;5.82;2.05;;;;;;;;;;5099434;28;20110;-68
2022/05/15 07:28:51;;;;;;;5.60;1.70;;;;;;;;;;5102225;28;20024;-68
2022/05/15 07:31:21;;;;;;;7.18;2.00;;;;;;;;;;5109990;28;20043;-68
2022/05/15 07:34:00;;;;;;;5.03;1.75;;;;;;;;;;5113313;28;20043;-68
2022/05/15 07:36:25;;;;;;;6.75;1.75;;;;;;;;;;5114966;28;20080;-68
2022/05/15 07:38:50;;;;;;;5.93;1.90;;;;;;;;;;5114009;28;20023;-68
2022/05/15 07:41:29;;;;;;;8.65;2.28;;;;;;;;;;5114892;28;20023;-68
2022/05/15 07:43:54;;;;;;;5.57;1.85;;;;;;;;;;5105416;28;20077;-68
2022/05/15 07:46:19;;;;;;;7.05;2.05;;;;;;;;;;5098411;28;20019;-68
2022/05/15 07:48:58;;;;;;;7.63;1.63;;;;;;;;;;5112635;28;20046;-69
2022/05/15 07:51:23;;;;;;;5.50;2.00;;;;;;;;;;5106642;28;20100;-68
2022/05/15 07:53:49;;;;;;;7.25;2.13;;;;;;;;;;5114157;28;20452;-68
2022/05/15 07:56:28;;;;;;;7.18;2.25;;;;;;;;;;5111694;28;20024;-69
2022/05/15 07:58:53;;;;;;;10.10;2.72;;;;;;;;;;5108350;28;20046;-68
2022/05/15 08:01:18;;;;;;;15.38;2.60;;;;;;;;;;5102589;28;20027;-69
2022/05/15 08:03:57;;;;;;;6.80;2.65;;;;;;;;;;5106591;28;20061;-69
2022/05/15 08:09:13;;;;;;;;;;;;;;;;;;5114328;28;20379;-68
2022/05/15 08:11:45;;;;;;;5.10;2.10;;;;;;;;;;5112847;28;19960;-69
2022/05/15 08:14:11;;;;;;;8.10;2.33;;;;;;;;;;5112784;28;20030;-68
2022/05/15 08:16:43;;;;;;;6.25;2.20;;;;;;;;;;5104130;28;20379;-69
2022/05/15 08:24:57;;;;;;;7.60;2.22;;;;;;;;;;5112335;28;20088;-69
2022/05/15 08:27:29;;;;;;;10.07;2.63;;;;;;;;;;5101438;28;20050;-68
2022/05/15 08:29:55;;;;;;;9.25;2.60;;;;;;;;;;5101613;28;20048;-68
2022/05/15 08:32:27;;;;;;;10.48;3.22;;;;;;;;;;5110258;28;20110;-68
2022/05/15 08:34:59;;;;;;;8.30;2.55;;;;;;;;;;5100138;28;20090;-68
2022/05/15 08:37:24;;;;;;;9.07;3.33;;;;;;;;;;5100497;28;20028;-68
2022/05/15 08:39:56;;;;;;;6.05;2.33;;;;;;;;;;5112636;28;20027;-68
2022/05/15 08:42:34;;;;;;;10.38;2.78;;;;;;;;;;5113803;28;20102;-68
2022/05/15 08:45:08;;;;;;;6.95;2.88;;;;;;;;;;5112689;28;20031;-68
2022/05/15 08:47:44;;;;;;;12.05;2.90;;;;;;;;;;5113502;28;20085;-68
2022/05/15 08:50:17;;;;;;;12.60;3.42;;;;;;;;;;5107040;28;20089;-68
2022/05/15 08:52:52;;;;;;;10.93;2.88;;;;;;;;;;5101518;28;20390;-68
2022/05/15 08:55:26;;;;;;;8.45;3.08;;;;;;;;;;5096851;28;20036;-68
2022/05/15 08:58:01;;;;;;;11.93;3.65;;;;;;;;;;5080776;28;20032;-69
2022/05/15 09:00:36;;;;;;;13.73;3.78;;;;;;;;;;5106015;28;20386;-68
2022/05/15 09:03:23;;;;;;;9.55;3.30;;;;;;;;;;5106641;28;20050;-69
2022/05/15 09:05:55;;;;;;;7.72;3.10;;;;;;;;;;5108867;28;20046;-69
2022/05/15 09:08:37;;;;;;;17.85;3.80;;;;;;;;;;5108211;28;20065;-68
2022/05/15 09:11:09;;;;;;;13.82;3.42;;;;;;;;;;5114329;28;20027;-68
2022/05/15 09:13:34;;;;;;;9.07;3.55;;;;;;;;;;5105579;28;20118;-68
2022/05/15 09:16:08;;;;;;;11.10;3.45;;;;;;;;;;5114456;28;20099;-68
2022/05/15 09:18:40;;;;;;;10.80;3.50;;;;;;;;;;5115430;28;20035;-69
2022/05/15 09:21:19;;;;;;;10.85;3.55;;;;;;;;;;5116373;28;20053;-68
2022/05/15 09:23:52;;;;;;;13.45;3.92;;;;;;;;;;5117464;28;20038;-68
2022/05/15 09:26:19;;;;;;;9.05;3.15;;;;;;;;;;5104153;28;20019;-68
2022/05/15 09:29:04;;;;;;;9.48;3.28;;;;;;;;;;5106421;28;20036;-69
2022/05/15 09:31:40;;;;;;;9.70;3.67;;;;;;;;;;5115360;28;20028;-68
2022/05/15 09:34:14;;;;;;;8.05;3.17;;;;;;;;;;5094342;28;20052;-68
2022/05/15 09:36:47;;;;;;;9.32;3.15;;;;;;;;;;5107638;28;20039;-68
2022/05/15 09:39:37;;;;;;;9.20;3.88;;;;;;;;;;5102125;28;20534;-69
2022/05/15 09:45:20;;;;;;;11.75;3.72;;;;;;;;;;5114334;28;20492;-68
2022/05/15 09:47:52;;;;;;;13.00;3.13;;;;;;;;;;5109351;28;20027;-68
2022/05/15 09:50:42;;;;;;;10.25;3.55;;;;;;;;;;5113934;28;20096;-68
2022/05/15 09:53:20;;;;;;;13.90;4.03;;;;;;;;;;5112971;28;20035;-68
2022/05/15 09:56:03;;;;;;;12.77;3.30;;;;;;;;;;5104522;28;20463;-68
2022/05/15 09:59:04;;;;;;;7.30;3.17;;;;;;;;;;5111974;28;20043;-68
2022/05/15 10:01:41;;;;;;;9.40;3.78;;;;;;;;;;5096189;28;20036;-68
2022/05/15 10:04:24;;;;;;;13.23;4.35;;;;;;;;;;5100945;28;20031;-68
2022/05/15 10:07:04;;;;;;;13.07;3.72;;;;;;;;;;5115866;28;20030;-68
2022/05/15 10:09:40;;;;;;;11.77;3.53;;;;;;;;;;5104924;28;20034;-68
2022/05/15 10:12:27;;;;;;;13.48;4.00;;;;;;;;;;5095187;28;20379;-68
2022/05/15 10:15:02;;;;;;;11.82;3.10;;;;;;;;;;5116082;28;20027;-68
2022/05/15 10:17:34;;;;;;;10.52;3.67;;;;;;;;;;5116125;28;20478;-68
2022/05/15 10:20:07;;;;;;;15.18;4.28;;;;;;;;;;5105443;28;20113;-69
2022/05/15 10:22:50;;;;;;;13.10;3.65;;;;;;;;;;5107801;28;20024;-68
2022/05/15 10:25:34;;;;;;;12.50;3.45;;;;;;;;;;5113072;28;20035;-68
2022/05/15 10:28:06;;;;;;;;;;;;;;;;;;5109007;28;20110;-68
2022/05/15 10:30:46;;;;;;;9.02;2.90;;;;;;;;;;5116126;28;19908;-68
2022/05/15 10:33:23;;;;;;;9.45;3.25;;;;;;;;;;5114975;28;20135;-68
2022/05/15 10:36:07;;;;;;;15.60;3.30;;;;;;;;;;5115640;28;20425;-68
2022/05/15 10:39:11;;;;;;;7.82;3.08;;;;;;;;;;5109945;28;20032;-68
2022/05/15 10:42:01;;;;;;;10.65;3.33;;;;;;;;;;5074433;28;20038;-68
2022/05/15 10:44:52;;;;;;;9.27;3.28;;;;;;;;;;5113970;28;20027;-68
2022/05/15 10:47:34;;;;;;;8.23;3.53;;;;;;;;;;5101756;28;20073;-68
2022/05/15 10:50:29;;;;;;;15.75;2.90;;;;;;;;;;5114618;28;20042;-68
2022/05/15 10:59:02;;;;;;;7.90;3.47;;;;;;;;;;5114610;28;20100;-68
2022/05/15 11:01:36;;;;;;;12.20;3.55;;;;;;;;;;5103283;28;20036;-68
2022/05/15 11:04:16;;;;;;;8.95;3.90;;;;;;;;;;5103645;28;20028;-68
2022/05/15 11:06:58;;;;;;;8.27;3.63;;;;;;;;;;5111233;28;20059;-67
2022/05/15 11:09:44;;;;;;;10.55;3.72;;;;;;;;;;5102545;28;20081;-68
2022/05/15 11:12:22;;;;;;;8.88;3.28;;;;;;;;;;5103664;28;20483;-68
2022/05/15 11:15:06;;;;;;;11.57;3.95;;;;;;;;;;5109617;28;20080;-68
2022/05/15 11:17:52;;;;;;;8.70;3.90;;;;;;;;;;5109521;28;20391;-67
2022/05/15 11:20:20;;;;;;;12.02;4.63;;;;;;;;;;5097846;28;20059;-67
2022/05/15 11:23:18;;;;;;;9.90;3.67;;;;;;;;;;5111808;28;20023;-68
2022/05/15 11:25:47;;;;;;;12.10;3.72;;;;;;;;;;5099548;28;21488;-68
2022/05/15 11:28:38;;;;;;;12.82;4.65;;;;;;;;;;5108231;28;20018;-67
2022/05/15 11:31:09;;;;;;;16.63;3.80;;;;;;;;;;5101938;28;20081;-67
2022/05/15 11:33:51;;;;;;;12.63;4.00;;;;;;;;;;5105152;28;20047;-67
2022/05/15 11:36:22;;;;;;;12.90;3.22;;;;;;;;;;5102245;28;20043;-68
2022/05/15 11:39:10;;;;;;;12.60;4.05;;;;;;;;;;5099385;28;20028;-68
2022/05/15 11:41:35;;;;;;;12.18;4.25;;;;;;;;;;5103126;28;20031;-67
2022/05/15 11:44:37;;;;;;;9.82;3.90;;;;;;;;;;5113380;28;20011;-68
2022/05/15 11:47:14;;;;;;;9.65;4.28;;;;;;;;;;5108764;28;20038;-67
2022/05/15 11:50:11;;;;;;;11.00;4.45;;;;;;;;;;5110413;28;20027;-68
2022/05/15 11:52:41;;;;;;;11.25;4.78;;;;;;;;;;5104575;28;20150;-67
2022/05/15 11:55:38;;;;;;;14.55;5.25;;;;;;;;;;5105742;28;20042;-68
2022/05/15 11:58:12;;;;;;;17.92;5.20;;;;;;;;;;5103104;28;20047;-68
2022/05/15 12:01:04;;;;;;;14.40;5.43;;;;;;;;;;5103262;28;20482;-68
2022/05/15 12:03:41;;;;;;;15.65;5.25;;;;;;;;;;5102161;28;20425;-67
2022/05/15 12:06:23;;;;;;;14.73;5.72;;;;;;;;;;5110984;28;20024;-67
2022/05/15 12:08:53;;;;;;;13.93;4.88;;;;;;;;;;5105353;28;20027;-67
2022/05/15 12:11:37;;;;;;;13.30;5.47;;;;;;;;;;5105025;28;20022;-67
2022/05/15 12:14:23;;;;;;;12.32;4.75;;;;;;;;;;5101769;28;20066;-68
2022/05/15 12:17:05;;;;;;;12.38;4.70;;;;;;;;;;5090330;28;20047;-67
2022/05/15 12:19:30;;;;;;;13.75;5.00;;;;;;;;;;5099657;28;20032;-67
2022/05/15 12:22:13;;;;;;;15.60;4.88;;;;;;;;;;5101713;28;20028;-68
2022/05/15 12:24:39;;;;;;;6.93;3.53;;;;;;;;;;5095831;28;20074;-67
2022/05/15 12:27:23;;;;;;;9.50;3.95;;;;;;;;;;5106789;28;20478;-67
2022/05/15 12:29:48;;;;;;;12.88;4.53;;;;;;;;;;5107535;28;20028;-67
2022/05/15 12:32:56;;;;;;;7.47;3.42;;;;;;;;;;5110179;28;20035;-67
2022/05/15 12:35:31;;;;;;;12.02;3.75;;;;;;;;;;5076577;28;20449;-67
2022/05/15 12:38:13;;;;;;;9.63;4.05;;;;;;;;;;5092981;28;20580;-67
2022/05/15 12:40:59;;;;;;;10.95;3.85;;;;;;;;;;5090377;28;20077;-67
2022/05/15 12:43:39;;;;;;;9.93;4.00;;;;;;;;;;5086317;28;20024;-68
2022/05/15 12:46:05;;;;;;;9.05;4.10;;;;;;;;;;5083681;28;20089;-67
2022/05/15 12:48:34;;;;;;;15.50;5.28;;;;;;;;;;5092443;28;20016;-68
2022/05/15 12:51:16;;;;;;;10.27;4.53;;;;;;;;;;5077431;28;20159;-68
2022/05/15 12:53:45;;;;;;;12.43;5.15;;;;;;;;;;5085595;28;20111;-68
2022/05/15 12:56:30;;;;;;;10.50;4.72;;;;;;;;;;5081716;28;20070;-67
2022/05/15 12:59:18;;;;;;;21.70;5.60;;;;;;;;;;5078465;28;20441;-68
2022/05/15 13:01:58;;;;;;;16.98;5.63;;;;;;;;;;5084092;28;20122;-68
2022/05/15 13:04:24;;;;;;;15.98;5.57;;;;;;;;;;5076708;28;20032;-68
2022/05/15 13:06:54;;;;;;;11.73;4.90;;;;;;;;;;5080326;28;20031;-68
2022/05/15 13:09:36;;;;;;;10.98;4.82;;;;;;;;;;5091261;28;20065;-67
2022/05/15 13:12:03;;;;;;;18.27;5.40;;;;;;;;;;5084352;28;20471;-68
2022/05/15 13:14:43;;;;;;;12.05;4.35;;;;;;;;;;5090946;28;20024;-67
2022/05/15 13:17:10;;;;;;;17.42;5.75;;;;;;;;;;5091599;28;20125;-68
2022/05/15 13:19:55;;;;;;;11.48;4.80;;;;;;;;;;5086558;28;20422;-67
2022/05/15 13:22:24;;;;;;;14.80;5.68;;;;;;;;;;5082525;28;20081;-67
2022/05/15 13:25:05;;;;;;;14.93;5.97;;;;;;;;;;5092905;28;20074;-67
2022/05/15 13:27:33;;;;;;;16.30;5.60;;;;;;;;;;5093142;28;20089;-68
2022/05/15 13:30:12;;;;;;;17.98;6.07;;;;;;;;;;5093032;28;20047;-67
2022/05/15 13:32:37;;;;;;;9.63;5.68;;;;;;;;;;5091041;28;20544;-67
2022/05/15 13:35:07;;;;;;;15.65;5.32;;;;;;;;;;5098379;28;20060;-68
2022/05/15 13:37:47;;;;;;;13.32;5.18;;;;;;;;;;5112698;28;20054;-68
2022/05/15 13:43:28;;;;;;;12.88;5.28;;;;;;;;;;5095140;28;20084;-68
2022/05/15 13:46:01;;;;;;;11.70;4.55;;;;;;;;;;5112026;28;20036;-67
2022/05/15 13:49:17;;;;;;;11.55;5.32;;;;;;;;;;5105893;28;20019;-68
2022/05/15 13:51:50;;;;;;;14.75;5.90;;;;;;;;;;5034377;28;20091;-67
2022/05/15 13:54:30;;;;;;;9.52;5.18;;;;;;;;;;5036645;28;20608;-68
2022/05/15 13:56:55;;;;;;;7.80;4.50;;;;;;;;;;5084377;28;20043;-68
2022/05/15 13:59:41;;;;;;;11.05;4.80;;;;;;;;;;5108718;28;20443;-67
2022/05/15 14:02:20;;;;;;;15.63;4.82;;;;;;;;;;5100082;28;20081;-68
2022/05/15 14:04:54;;;;;;;9.68;4.93;;;;;;;;;;5105172;28;20024;-68
2022/05/15 14:07:31;;;;;;;14.88;4.63;;;;;;;;;;5114839;28;20523;-67
2022/05/15 14:10:04;;;;;;;14.27;4.78;;;;;;;;;;5102632;28;20223;-68
2022/05/15 14:12:45;;;;;;;13.30;4.65;;;;;;;;;;5104046;28;20084;-68
2022/05/15 14:15:36;;;;;;;10.23;3.80;;;;;;;;;;5115712;28;20024;-68
2022/05/15 14:18:09;;;;;;;9.45;3.67;;;;;;;;;;5110133;28;20092;-67
2022/05/15 14:20:35;;;;;;;;;;;;;;;;;;5111393;28;20081;-68
2022/05/15 14:23:07;;;;;;;8.63;3.65;;;;;;;;;;5109112;28;19916;-67
2022/05/15 14:25:41;;;;;;;8.35;3.75;;;;;;;;;;5114848;28;20023;-67
2022/05/15 14:28:06;;;;;;;;;;;;;;;;;;5115649;28;20023;-68
2022/05/15 14:30:38;;;;;;;9.82;3.67;;;;;;;;;;5115374;28;19910;-67
2022/05/15 14:33:10;;;;;;;8.07;3.17;;;;;;;;;;5115440;28;20080;-68
2022/05/15 14:35:51;;;;;;;6.93;2.97;;;;;;;;;;5110209;28;20054;-68
2022/05/15 14:38:23;;;;;;;9.23;3.40;;;;;;;;;;5105890;28;20040;-67
2022/05/15 14:40:49;;;;;;;14.85;4.22;;;;;;;;;;5107420;28;20092;-67
2022/05/15 14:43:21;;;;;;;10.68;3.63;;;;;;;;;;5111337;28;20028;-67
2022/05/15 14:45:55;;;;;;;12.10;3.75;;;;;;;;;;5113979;28;20020;-68
2022/05/15 14:48:29;;;;;;;9.55;3.50;;;;;;;;;;5114080;28;20032;-68
2022/05/15 14:51:04;;;;;;;9.18;3.20;;;;;;;;;;5110211;28;20070;-68
2022/05/15 14:53:37;;;;;;;9.23;3.55;;;;;;;;;;5107271;28;20133;-68
2022/05/15 14:56:09;;;;;;;8.95;3.50;;;;;;;;;;5110413;28;20112;-67
2022/05/15 14:59:01;;;;;;;7.10;3.95;;;;;;;;;;5105598;28;20094;-68
2022/05/15 15:01:34;;;;;;;8.77;3.50;;;;;;;;;;5106772;28;20024;-68
2022/05/15 15:03:59;;;;;;;8.65;3.53;;;;;;;;;;5089056;28;20032;-68
2022/05/15 15:06:31;;;;;;;9.23;4.47;;;;;;;;;;5094885;28;20031;-67
2022/05/15 15:09:06;;;;;;;9.85;4.00;;;;;;;;;;5100027;28;20031;-67
2022/05/15 15:11:39;;;;;;;13.00;3.65;;;;;;;;;;5102916;28;20042;-68
2022/05/15 15:14:11;;;;;;;12.00;4.28;;;;;;;;;;5110768;28;20032;-67
2022/05/15 15:16:51;;;;;;;7.45;3.45;;;;;;;;;;5110962;28;20038;-67
2022/05/15 15:19:24;;;;;;;6.65;3.30;;;;;;;;;;5099213;28;20073;-68
2022/05/15 15:21:50;;;;;;;9.85;3.58;;;;;;;;;;5110439;28;20051;-68
2022/05/15 15:24:23;;;;;;;10.23;4.22;;;;;;;;;;5098363;28;20024;-68
2022/05/15 15:26:55;;;;;;;9.75;3.58;;;;;;;;;;5110255;28;20081;-68
2022/05/15 15:29:21;;;;;;;6.93;3.42;;;;;;;;;;5104129;28;20528;-68
2022/05/15 15:31:53;;;;;;;9.57;3.67;;;;;;;;;;5110734;28;20020;-67
2022/05/15 15:34:25;;;;;;;7.78;3.97;;;;;;;;;;5104281;28;20483;-68
2022/05/15 15:38:14;;;;;;;9.75;3.78;;;;;;;;;;5109207;28;20038;-68
2022/05/15 15:39:49;;;;;;;10.45;4.10;;;;;;;;;;5105735;28;20458;-68
2022/05/15 15:42:14;;;;;;;12.00;3.78;;;;;;;;;;5106106;28;20043;-68
2022/05/15 15:44:41;;;;;;;11.40;4.57;;;;;;;;;;5111440;28;20016;-68